メインページ
METAR-TAF:

METAR-TAF

空港 :

Edmonton/Villeneuve Airport

Villeneuve, アルバータ州, カナダ

緯度: 53-40-06N, 経度: 113-51-08W, 海抜: 688m

現時点の気象観測

当レポートは47分前の10:00(UTC)に作成
変向風 2kt
気温 13°C
湿度 94%
気圧 1015 hPa
視程: 14.5km
晴天

METAR: CZVL 051000Z AUTO VRB02KT 9SM CLR 13/12 A2996 RMK SLP146 DENSITY ALT 2400FT

時間: 04:47 (10:47 UTC)

予報

当レポートは5時間9分前の05:38(UTC)に作成
予報は05日の 06時(UTC)から 05日の 18時(UTC)まで有効
南/南西の風 6kt
視程: 10km
晴天
05日の 0900時(UTC)から
変向風 3kt
視程: 10km
晴天
確率 30%
05日の 09時(UTC)から 05日の 13時(UTC)まで
視程: 0.8km
高度200ftの雲は散在している

TAF: CZVL 050538Z 0506/0518 20006KT P6SM SKC FM050900 VRB03KT P6SM SKC PROB30 0509/0513 1/2SM FG SCT002 RMK FCST BASED ON AUTO OBS. NXT FCST BY 051200Z

4,000以上の空港の気象観測と天気予報(METAR報とTAF報)

利用可能な観測所は地図上に黄色い丸と赤い丸で示す。

丸の上にカーソルを重ねると観測所名を参照できる。

次にクリックすると気象観測と天気予報を参照できる。

マップの切り替え:黒色「×」印の緑ボタンをクリックして拡大、「-」印の緑ボタンをクリックして縮小、緑色の三角印をクリックして隣りの地図に切り替え


METAR-TAF: